Time;durP1;ratioP1;P1;durP2;ratioP2;P2;SDS_P1;SDS_P2;PMS_P1;PMS_P2;Temp;Humidity;BMP_temperature;BMP_pressure;BME280_temperature;BME280_humidity;BME280_pressure;Samples;Min_cycle;Max_cycle;Signal;HPM_P1;HPM_P2
2022/11/25 00:01:12;;;;;;;20.55;9.32;;;;;;;2.07;100.00;98386.28;2628612;28;20066;-93
2022/11/25 00:02:27;;;;;;;;;;;;;;;1.65;100.00;98394.63;2616631;28;20838;-94
2022/11/25 00:03:44;;;;;;;49.40;9.90;;;;;;;1.87;100.00;98389.59;2608625;28;19958;-93
2022/11/25 00:05:00;;;;;;;41.33;10.15;;;;;;;2.11;100.00;98391.47;2608580;28;20072;-94
2022/11/25 00:06:26;;;;;;;21.15;9.68;;;;;;;1.96;100.00;98388.81;2608876;28;20052;-95
2022/11/25 00:07:42;;;;;;;18.42;8.98;;;;;;;2.13;100.00;98378.53;2608779;28;20442;-93
2022/11/25 00:09:04;;;;;;;22.02;8.90;;;;;;;2.00;100.00;98385.38;2608145;28;20045;-93
2022/11/25 00:10:19;;;;;;;29.50;9.48;;;;;;;2.22;100.00;98385.47;2608324;28;20136;-93
2022/11/25 00:11:37;;;;;;;27.10;9.30;;;;;;;2.20;100.00;98382.00;2608763;28;20040;-92
2022/11/25 00:12:53;;;;;;;41.40;9.18;;;;;;;2.18;100.00;98378.56;2608667;28;20044;-93
2022/11/25 00:14:14;;;;;;;30.00;8.10;;;;;;;2.13;100.00;98381.13;2608820;28;20052;-93
2022/11/25 00:15:29;;;;;;;24.15;9.32;;;;;;;2.21;100.00;98389.78;2608904;28;20376;-95
2022/11/25 00:16:45;;;;;;;23.73;8.43;;;;;;;2.19;100.00;98385.47;2609114;28;20072;-94
2022/11/25 00:18:00;;;;;;;51.75;8.23;;;;;;;2.22;100.00;98382.88;2608931;28;20071;-94
2022/11/25 00:19:16;;;;;;;23.90;5.95;;;;;;;2.16;100.00;98382.88;2609044;28;20064;-92
2022/11/25 00:20:32;;;;;;;40.10;8.65;;;;;;;2.19;100.00;98386.34;2609121;28;20049;-94
2022/11/25 00:21:48;;;;;;;51.53;8.60;;;;;;;2.35;100.00;98378.66;2608825;28;20332;-93
2022/11/25 00:23:03;;;;;;;36.05;7.82;;;;;;;2.51;100.00;98379.56;2608028;28;20052;-91
2022/11/25 00:24:18;;;;;;;38.83;8.30;;;;;;;2.44;100.00;98377.81;2608910;28;20052;-93
2022/11/25 00:25:34;;;;;;;28.55;7.30;;;;;;;2.51;100.00;98379.56;2608916;28;20049;-93
2022/11/25 00:26:50;;;;;;;29.77;7.70;;;;;;;2.48;100.00;98379.53;2608776;28;20114;-93
2022/11/25 00:28:06;;;;;;;30.77;7.40;;;;;;;2.57;100.00;98384.75;2608885;28;20053;-94
2022/11/25 00:29:21;;;;;;;20.83;7.13;;;;;;;2.48;100.00;98376.97;2608741;28;20574;-93
2022/11/25 00:30:37;;;;;;;37.53;7.38;;;;;;;2.46;100.00;98381.28;2608960;28;20098;-93
2022/11/25 00:31:52;;;;;;;27.10;7.13;;;;;;;2.41;100.00;98373.50;2609352;28;20063;-93
2022/11/25 00:33:08;;;;;;;26.50;7.18;;;;;;;2.20;100.00;98372.56;2608735;28;20049;-94
2022/11/25 00:34:23;;;;;;;59.95;9.13;;;;;;;1.98;100.00;98374.19;2608816;28;20053;-94
2022/11/25 00:35:39;;;;;;;78.72;8.80;;;;;;;2.19;100.00;98380.28;2608730;28;20255;-94
2022/11/25 00:36:55;;;;;;;35.63;8.68;;;;;;;2.32;100.00;98382.06;2608476;28;20442;-94
2022/11/25 00:38:10;;;;;;;59.08;8.18;;;;;;;2.47;100.00;98372.66;2608971;28;20068;-93
2022/11/25 00:39:26;;;;;;;37.90;7.55;;;;;;;2.35;100.00;98381.22;2608555;28;20048;-94
2022/11/25 00:40:42;;;;;;;19.27;6.93;;;;;;;2.36;100.00;98380.38;2608305;28;20087;-94
2022/11/25 00:45:05;;;;;;;32.85;6.93;;;;;;;2.36;100.00;98380.38;2608477;28;20438;-93
2022/11/25 00:46:21;;;;;;;48.78;8.43;;;;;;;2.36;100.00;98383.81;2608482;28;20087;-95
2022/11/25 00:47:37;;;;;;;37.63;6.00;;;;;;;2.31;100.00;98377.75;2608126;28;20063;-94
2022/11/25 00:48:52;;;;;;;22.60;5.63;;;;;;;2.36;100.00;98375.22;2607899;28;20091;-94
2022/11/25 00:50:33;;;;;;;12.65;5.57;;;;;;;2.27;100.00;98378.63;2608201;28;20094;-93
2022/11/25 00:51:50;;;;;;;9.52;5.20;;;;;;;2.36;100.00;98378.63;2607976;28;20379;-95
2022/11/25 00:53:05;;;;;;;17.67;6.13;;;;;;;2.56;100.00;98380.44;2608321;28;20091;-93
2022/11/25 00:54:21;;;;;;;10.27;5.40;;;;;;;2.64;100.00;98378.72;2608445;28;20055;-95
2022/11/25 00:56:11;;;;;;;15.50;5.65;;;;;;;2.70;100.00;98383.06;2608623;28;20053;-93
2022/11/25 00:57:14;;;;;;;20.13;5.47;;;;;;;2.75;100.00;98380.50;2608583;28;20135;-94
2022/11/25 00:58:30;;;;;;;27.23;6.50;;;;;;;2.73;100.00;98382.22;2608236;28;20057;-95
2022/11/25 00:59:46;;;;;;;22.17;5.40;;;;;;;2.73;100.00;98382.22;2608559;28;20079;-94
2022/11/25 01:01:01;;;;;;;28.83;6.20;;;;;;;2.78;100.00;98383.06;2608340;28;20048;-94
2022/11/25 01:02:18;;;;;;;13.88;5.22;;;;;;;2.81;100.00;98386.53;2608367;28;20067;-94
2022/11/25 01:03:35;;;;;;;19.70;5.40;;;;;;;2.83;100.00;98389.16;2608467;28;20045;-93
2022/11/25 01:04:51;;;;;;;11.68;5.72;;;;;;;2.85;100.00;98386.53;2608232;28;20068;-94
2022/11/25 01:06:08;;;;;;;9.50;5.55;;;;;;;2.75;100.00;98388.25;2608081;28;20067;-94
2022/11/25 01:07:24;;;;;;;40.50;5.72;;;;;;;2.37;100.00;98388.13;2608708;28;20107;-94
2022/11/25 01:08:40;;;;;;;36.47;7.30;;;;;;;2.51;100.00;98387.31;2608448;28;20064;-95
2022/11/25 01:09:55;;;;;;;34.40;8.20;;;;;;;2.23;100.00;98390.66;2607866;28;20465;-93
2022/11/25 01:11:13;;;;;;;47.88;8.65;;;;;;;2.23;100.00;98387.19;2606956;28;20056;-93
2022/11/25 01:12:29;;;;;;;32.17;8.02;;;;;;;2.44;100.00;98391.59;2608452;28;20080;-94
2022/11/25 01:13:45;;;;;;;26.88;8.27;;;;;;;2.64;100.00;98394.25;2608223;28;20424;-94
2022/11/25 01:15:00;;;;;;;36.97;8.73;;;;;;;2.68;100.00;98390.84;2607944;28;20551;-93
2022/11/25 01:16:18;;;;;;;32.63;8.23;;;;;;;2.69;100.00;98389.09;2608010;28;20458;-94
2022/11/25 01:17:34;;;;;;;42.58;7.47;;;;;;;2.65;100.00;98393.41;2607994;28;20143;-93
2022/11/25 01:18:50;;;;;;;37.22;7.70;;;;;;;2.27;100.00;98394.13;2608185;28;20064;-93
2022/11/25 01:20:06;;;;;;;30.42;8.20;;;;;;;2.51;100.00;98385.59;2608490;28;20060;-94
2022/11/25 01:21:24;;;;;;;35.50;7.57;;;;;;;2.54;100.00;98388.19;2608467;28;20041;-95
2022/11/25 01:22:40;;;;;;;26.70;8.43;;;;;;;2.55;100.00;98389.06;2608344;28;20511;-93
2022/11/25 01:23:59;;;;;;;34.20;8.27;;;;;;;2.21;100.00;98391.50;2608519;28;20045;-94
2022/11/25 01:25:15;;;;;;;19.17;7.60;;;;;;;2.50;100.00;98383.00;2607810;28;20126;-93
2022/11/25 01:26:31;;;;;;;16.77;7.10;;;;;;;2.20;100.00;98382.91;2608428;28;20057;-94
2022/11/25 01:27:47;;;;;;;17.23;7.43;;;;;;;2.29;100.00;98383.78;2608190;28;20057;-93
2022/11/25 01:29:05;;;;;;;15.30;6.97;;;;;;;2.28;100.00;98382.06;2608129;28;20049;-93
2022/11/25 01:30:20;;;;;;;10.73;5.60;;;;;;;2.31;100.00;98379.50;2608002;28;20111;-93
2022/11/25 01:31:36;;;;;;;11.52;6.28;;;;;;;2.41;100.00;98383.81;2608357;28;20049;-93
2022/11/25 01:32:52;;;;;;;12.05;6.32;;;;;;;2.38;100.00;98382.13;2608242;28;20091;-93
2022/11/25 01:34:13;;;;;;;9.75;5.78;;;;;;;2.44;100.00;98377.81;2608229;28;20442;-93
2022/11/25 01:35:28;;;;;;;11.02;5.40;;;;;;;2.38;100.00;98384.69;2608114;28;20431;-93
2022/11/25 01:36:44;;;;;;;10.68;5.13;;;;;;;2.38;100.00;98379.53;2607366;28;20045;-93
2022/11/25 01:38:00;;;;;;;8.68;4.85;;;;;;;2.07;100.00;98383.69;2607612;28;20095;-94
2022/11/25 01:39:23;;;;;;;8.95;4.97;;;;;;;2.33;100.00;98383.81;2607926;28;20295;-93
2022/11/25 01:40:38;;;;;;;10.32;5.40;;;;;;;2.47;100.00;98372.66;2608276;28;20116;-93
2022/11/25 01:41:54;;;;;;;12.75;6.22;;;;;;;2.19;100.00;98377.72;2608216;28;20056;-93
2022/11/25 01:43:13;;;;;;;21.23;6.68;;;;;;;2.25;100.00;98386.34;2608226;28;20507;-93
2022/11/25 01:44:31;;;;;;;11.40;6.40;;;;;;;2.25;100.00;98381.19;2608190;28;20534;-93
2022/11/25 01:45:46;;;;;;;19.90;6.65;;;;;;;2.13;100.00;98382.84;2608310;28;20506;-93
2022/11/25 01:47:14;;;;;;;11.30;5.70;;;;;;;2.39;100.00;98382.97;2608387;28;20053;-91
2022/11/25 01:48:43;;;;;;;10.60;6.10;;;;;;;2.57;100.00;98382.19;2608191;28;20076;-93
2022/11/25 01:50:03;;;;;;;14.57;5.65;;;;;;;2.64;100.00;98381.31;2608325;28;20717;-93
2022/11/25 01:51:26;;;;;;;14.45;5.40;;;;;;;2.66;100.00;98386.50;2608479;28;20691;-94
2022/11/25 01:52:47;;;;;;;9.98;5.50;;;;;;;2.67;100.00;98385.63;2607566;28;20059;-93
2022/11/25 01:54:05;;;;;;;9.73;6.05;;;;;;;2.77;100.00;98383.94;2608328;28;20504;-93
2022/11/25 01:55:28;;;;;;;10.70;5.60;;;;;;;2.83;100.00;98389.16;2608215;28;20049;-93
2022/11/25 01:57:02;;;;;;;13.07;5.97;;;;;;;2.63;100.00;98384.75;2607739;28;20083;-94
2022/11/25 01:58:25;;;;;;;10.13;5.30;;;;;;;2.76;100.00;98392.56;2608003;28;20578;-93
2022/11/25 01:59:48;;;;;;;8.88;4.93;;;;;;;2.71;100.00;98389.09;2608021;28;20077;-96
2022/11/25 02:01:04;;;;;;;10.95;5.43;;;;;;;2.57;100.00;98383.88;2608321;28;20141;-93
2022/11/25 02:02:19;;;;;;;11.77;5.93;;;;;;;2.42;100.00;98389.88;2607884;28;20710;-94
2022/11/25 02:03:42;;;;;;;12.93;5.97;;;;;;;2.61;100.00;98393.41;2608097;28;20055;-94
2022/11/25 02:04:59;;;;;;;11.95;6.00;;;;;;;2.51;100.00;98398.53;2608219;28;20512;-93
2022/11/25 02:06:27;;;;;;;10.68;6.32;;;;;;;2.76;100.00;98389.97;2607938;28;20484;-94
2022/11/25 02:07:47;;;;;;;12.20;5.82;;;;;;;2.77;100.00;98387.41;2608220;28;20053;-94
2022/11/25 02:09:05;;;;;;;11.30;5.43;;;;;;;2.37;100.00;98388.13;2608066;28;20049;-94
2022/11/25 02:10:30;;;;;;;13.35;5.47;;;;;;;2.11;100.00;98393.16;2608139;28;20071;-93
2022/11/25 02:11:46;;;;;;;13.20;6.28;;;;;;;2.14;100.00;98387.16;2607981;28;20124;-93
2022/11/25 02:13:02;;;;;;;16.73;6.47;;;;;;;2.24;100.00;98394.13;2608260;28;20049;-95
2022/11/25 02:14:21;;;;;;;15.43;6.30;;;;;;;2.60;100.00;98389.09;2608198;28;20064;-93
2022/11/25 02:15:37;;;;;;;11.18;6.35;;;;;;;2.70;100.00;98390.81;2607904;28;20049;-94
2022/11/25 02:16:52;;;;;;;13.90;6.07;;;;;;;2.76;100.00;98387.38;2608346;28;20068;-93
2022/11/25 02:18:08;;;;;;;10.70;5.82;;;;;;;2.76;100.00;98392.56;2608299;28;20558;-93
2022/11/25 02:19:35;;;;;;;12.25;5.18;;;;;;;2.69;100.00;98391.69;2608228;28;20044;-94
2022/11/25 02:20:51;;;;;;;9.18;4.97;;;;;;;2.61;100.00;98383.91;2608226;28;20076;-94
2022/11/25 02:22:14;;;;;;;14.07;6.57;;;;;;;2.45;100.00;98392.47;2608293;28;20049;-93
2022/11/25 02:23:47;;;;;;;10.00;5.10;;;;;;;2.39;100.00;98389.00;2608300;28;20438;-93
2022/11/25 02:25:18;;;;;;;14.98;5.95;;;;;;;2.62;100.00;98389.94;2609833;28;20052;-93
2022/11/25 02:26:34;;;;;;;20.10;6.28;;;;;;;2.63;100.00;98391.66;2612280;28;20091;-94
2022/11/25 02:27:56;;;;;;;38.80;6.30;;;;;;;2.49;100.00;98378.69;2612975;28;20049;-93
2022/11/25 02:29:12;;;;;;;53.28;7.90;;;;;;;2.42;100.00;98388.13;2613757;28;20048;-92
2022/11/25 02:30:27;;;;;;;50.83;7.28;;;;;;;2.50;100.00;98383.00;2614557;28;20091;-93
2022/11/25 02:31:43;;;;;;;79.07;8.52;;;;;;;2.57;100.00;98384.75;2614450;28;20654;-92
2022/11/25 02:32:59;;;;;;;47.20;7.20;;;;;;;2.61;100.00;98380.47;2614631;28;20037;-92
2022/11/25 02:34:14;;;;;;;10.88;5.25;;;;;;;2.66;100.00;98383.91;2614451;28;20048;-94
2022/11/25 02:35:39;;;;;;;37.28;6.50;;;;;;;2.44;100.00;98380.41;2615227;28;20266;-93
2022/11/25 02:36:55;;;;;;;27.55;6.63;;;;;;;2.40;100.00;98384.69;2614683;28;20395;-93
2022/11/25 02:38:16;;;;;;;61.28;7.03;;;;;;;2.29;100.00;98383.78;2615719;28;20108;-94
2022/11/25 02:39:31;;;;;;;45.13;7.55;;;;;;;2.17;100.00;98382.00;2614459;28;20094;-93
2022/11/25 02:40:53;;;;;;;49.35;7.38;;;;;;;2.35;100.00;98381.22;2614706;28;20055;-93
2022/11/25 02:42:09;;;;;;;17.30;6.38;;;;;;;2.38;100.00;98381.25;2615467;28;20125;-92
2022/11/25 02:43:26;;;;;;;38.45;6.95;;;;;;;2.43;100.00;98378.69;2614055;28;20045;-93
2022/11/25 02:44:41;;;;;;;30.30;6.03;;;;;;;2.40;100.00;98372.66;2614761;28;20059;-94
2022/11/25 02:46:14;;;;;;;66.53;8.07;;;;;;;2.35;100.00;98384.66;2613227;28;20049;-94
2022/11/25 02:47:30;;;;;;;12.05;5.35;;;;;;;2.45;100.00;98389.88;2610325;28;20056;-93
2022/11/25 02:48:46;;;;;;;36.53;5.47;;;;;;;2.32;100.00;98396.72;2611979;28;21014;-93
2022/11/25 02:50:02;;;;;;;33.70;6.18;;;;;;;2.46;100.00;98395.06;2612372;28;20127;-94
2022/11/25 02:51:20;;;;;;;16.10;5.22;;;;;;;2.47;100.00;98388.16;2613495;28;20541;-94
2022/11/25 02:52:36;;;;;;;10.05;5.43;;;;;;;2.47;100.00;98395.91;2612611;28;20076;-92
2022/11/25 02:53:52;;;;;;;10.20;5.55;;;;;;;2.48;100.00;98395.06;2612704;28;20064;-95
2022/11/25 02:55:08;;;;;;;20.65;5.55;;;;;;;2.45;100.00;98400.22;2612926;28;20045;-93
2022/11/25 02:56:30;;;;;;;17.08;4.95;;;;;;;2.38;100.00;98395.03;2616286;28;20044;-93
2022/11/25 02:57:46;;;;;;;28.80;5.63;;;;;;;2.50;100.00;98388.16;2616704;28;20056;-92
2022/11/25 02:59:02;;;;;;;35.90;5.30;;;;;;;2.58;100.00;98394.25;2616069;28;20055;-94
2022/11/25 03:00:18;;;;;;;36.60;4.97;;;;;;;2.57;100.00;98397.69;2615775;28;20052;-94
2022/11/25 03:01:35;;;;;;;41.40;5.60;;;;;;;2.48;100.00;98392.47;2610192;28;20052;-94
2022/11/25 03:02:53;;;;;;;31.65;5.22;;;;;;;2.44;100.00;98395.91;2609422;28;20080;-94
2022/11/25 03:04:09;;;;;;;16.50;4.80;;;;;;;2.49;100.00;98395.06;2612353;28;20366;-94
2022/11/25 03:05:25;;;;;;;7.72;4.18;;;;;;;2.54;100.00;98393.34;2616232;28;20057;-92
2022/11/25 03:06:40;;;;;;;13.80;4.72;;;;;;;2.61;100.00;98390.81;2615749;28;20045;-94
2022/11/25 03:07:56;;;;;;;15.52;5.18;;;;;;;2.70;100.00;98393.41;2616114;28;20056;-93
2022/11/25 03:09:11;;;;;;;59.83;6.07;;;;;;;2.73;100.00;98397.72;2616884;28;20052;-93
2022/11/25 03:10:27;;;;;;;19.63;5.00;;;;;;;2.76;100.00;98402.91;2616651;28;20052;-93
2022/11/25 03:13:17;;;;;;;30.42;5.00;;;;;;;2.62;100.00;98405.47;2616453;28;20053;-92
2022/11/25 03:14:33;;;;;;;24.00;5.03;;;;;;;2.55;100.00;98404.56;2616786;28;20041;-93
2022/11/25 03:15:48;;;;;;;18.23;5.15;;;;;;;2.57;100.00;98414.91;2616320;28;20044;-94
2022/11/25 03:17:04;;;;;;;10.52;4.72;;;;;;;2.60;100.00;98402.84;2615956;28;20072;-94
2022/11/25 03:18:20;;;;;;;11.23;5.65;;;;;;;2.58;100.00;98408.88;2615382;28;20049;-92
2022/11/25 03:19:35;;;;;;;10.07;4.72;;;;;;;2.76;100.00;98403.78;2611947;28;20052;-93
2022/11/25 03:20:52;;;;;;;27.23;4.80;;;;;;;2.73;100.00;98402.91;2610759;28;20599;-94
2022/11/25 03:22:08;;;;;;;12.85;4.43;;;;;;;2.77;100.00;98409.78;2610353;28;20048;-94
2022/11/25 03:23:24;;;;;;;21.05;5.00;;;;;;;2.67;100.00;98404.63;2610229;28;20550;-94
2022/11/25 03:24:40;;;;;;;18.98;4.97;;;;;;;2.64;100.00;98409.75;2610111;28;20405;-93
2022/11/25 03:25:55;;;;;;;49.97;6.43;;;;;;;2.72;100.00;98409.78;2609919;28;20060;-94
2022/11/25 03:27:11;;;;;;;13.55;5.35;;;;;;;2.57;100.00;98402.84;2609650;28;20052;-93
2022/11/25 03:28:26;;;;;;;11.85;5.28;;;;;;;2.38;100.00;98407.06;2609571;28;20068;-94
2022/11/25 03:29:42;;;;;;;18.58;4.85;;;;;;;2.36;100.00;98407.06;2609630;28;20052;-95
2022/11/25 03:30:57;;;;;;;23.58;5.68;;;;;;;2.51;100.00;98411.44;2609670;28;20553;-94
2022/11/25 03:32:13;;;;;;;28.48;5.40;;;;;;;2.61;100.00;98416.66;2609801;28;20045;-94
2022/11/25 03:33:29;;;;;;;34.08;5.82;;;;;;;2.66;100.00;98410.66;2610095;28;20049;-95
2022/11/25 03:34:44;;;;;;;35.20;5.20;;;;;;;2.58;100.00;98417.50;2609661;28;20045;-95
2022/11/25 03:36:00;;;;;;;42.70;6.03;;;;;;;2.50;100.00;98416.59;2610056;28;20450;-94
2022/11/25 03:37:15;;;;;;;35.80;6.38;;;;;;;2.39;100.00;98419.13;2609744;28;20789;-94
2022/11/25 03:38:31;;;;;;;39.50;6.00;;;;;;;2.32;100.00;98425.16;2609241;28;20099;-94
2022/11/25 03:39:46;;;;;;;51.45;7.78;;;;;;;2.27;100.00;98419.94;2609493;28;20052;-95
2022/11/25 03:41:02;;;;;;;22.85;6.43;;;;;;;2.53;100.00;98421.78;2609555;28;20060;-94
2022/11/25 03:42:17;;;;;;;37.83;8.10;;;;;;;2.73;100.00;98416.69;2609524;28;20057;-94
2022/11/25 03:43:34;;;;;;;21.88;6.72;;;;;;;2.75;100.00;98416.69;2609353;28;20059;-94
2022/11/25 03:44:49;;;;;;;25.52;6.93;;;;;;;2.86;100.00;98412.41;2609444;28;20451;-93
2022/11/25 03:46:05;;;;;;;17.40;6.53;;;;;;;2.89;100.00;98411.56;2609270;28;20041;-94
2022/11/25 03:47:21;;;;;;;16.80;5.85;;;;;;;2.94;100.00;98407.25;2609446;28;20534;-94
2022/11/25 03:48:36;;;;;;;30.88;6.97;;;;;;;3.03;100.00;98412.47;2609189;28;20067;-93
2022/11/25 03:49:52;;;;;;;20.98;6.03;;;;;;;3.09;100.00;98414.19;2609507;28;20147;-94
2022/11/25 03:51:07;;;;;;;24.85;5.80;;;;;;;2.96;100.00;98410.72;2609259;28;20496;-94
2022/11/25 03:52:23;;;;;;;24.50;6.40;;;;;;;2.90;100.00;98406.38;2609414;28;20514;-94
2022/11/25 03:53:39;;;;;;;24.35;6.40;;;;;;;2.90;100.00;98413.28;2608785;28;20072;-95
2022/11/25 03:54:54;;;;;;;40.13;8.00;;;;;;;2.72;100.00;98411.50;2609094;28;20400;-93
2022/11/25 03:56:10;;;;;;;35.97;7.13;;;;;;;2.69;100.00;98414.94;2609303;28;20114;-95
2022/11/25 03:57:26;;;;;;;38.30;7.00;;;;;;;2.87;100.00;98410.72;2608709;28;20071;-95
2022/11/25 03:58:41;;;;;;;45.13;6.82;;;;;;;2.65;100.00;98416.69;2608673;28;20536;-94
2022/11/25 03:59:57;;;;;;;37.20;7.22;;;;;;;2.62;100.00;98416.63;2608992;28;20090;-93
2022/11/25 04:01:12;;;;;;;36.10;7.43;;;;;;;2.68;100.00;98421.84;2609312;28;20049;-94
2022/11/25 04:02:28;;;;;;;32.22;7.55;;;;;;;2.81;100.00;98417.56;2609154;28;20053;-94
2022/11/25 04:03:44;;;;;;;30.58;7.50;;;;;;;2.91;100.00;98417.59;2609239;28;20064;-94
2022/11/25 04:04:59;;;;;;;27.83;6.75;;;;;;;2.90;100.00;98418.47;2608575;28;20049;-94
2022/11/25 04:06:17;;;;;;;37.17;8.52;;;;;;;3.05;100.00;98415.91;2609122;28;20663;-95
2022/11/25 04:07:33;;;;;;;45.17;7.72;;;;;;;3.04;100.00;98415.91;2609310;28;20139;-94
2022/11/25 04:08:49;;;;;;;25.88;7.63;;;;;;;3.06;100.00;98419.34;2608812;28;20511;-94
2022/11/25 04:10:05;;;;;;;45.50;7.78;;;;;;;3.05;100.00;98420.22;2609204;28;20480;-94
2022/11/25 04:11:21;;;;;;;30.02;6.95;;;;;;;3.07;100.00;98418.47;2608802;28;20533;-94
2022/11/25 04:12:45;;;;;;;28.98;7.15;;;;;;;2.99;100.00;98421.06;2608562;28;20561;-94
2022/11/25 04:14:01;;;;;;;19.45;6.72;;;;;;;2.92;100.00;98419.34;2608652;28;20146;-94
2022/11/25 04:15:17;;;;;;;25.92;7.07;;;;;;;2.92;100.00;98419.34;2608726;28;20086;-95
2022/11/25 04:16:32;;;;;;;19.98;6.50;;;;;;;2.88;100.00;98420.19;2608288;28;20096;-93
2022/11/25 04:17:48;;;;;;;31.75;7.28;;;;;;;2.85;100.00;98415.88;2608861;28;20049;-94
2022/11/25 04:19:04;;;;;;;14.38;6.47;;;;;;;2.75;100.00;98417.56;2608511;28;20076;-95
2022/11/25 04:20:19;;;;;;;24.85;6.70;;;;;;;2.62;100.00;98421.81;2608672;28;20507;-94
2022/11/25 04:21:35;;;;;;;19.90;7.05;;;;;;;2.64;100.00;98419.25;2608616;28;20056;-95
2022/11/25 04:22:50;;;;;;;26.02;7.18;;;;;;;2.70;100.00;98414.09;2608671;28;20091;-94
2022/11/25 04:24:06;;;;;;;29.55;6.90;;;;;;;2.87;100.00;98421.06;2608754;28;20073;-94
2022/11/25 04:25:22;;;;;;;15.73;6.43;;;;;;;2.91;100.00;98423.63;2608023;28;20474;-93
2022/11/25 04:26:37;;;;;;;28.83;6.32;;;;;;;2.91;100.00;98417.59;2608596;28;21326;-93
2022/11/25 04:27:53;;;;;;;20.27;6.18;;;;;;;2.86;100.00;98422.75;2608648;28;20053;-94
2022/11/25 04:29:09;;;;;;;18.17;5.40;;;;;;;2.76;100.00;98414.13;2608334;28;20561;-94
2022/11/25 04:30:25;;;;;;;19.67;4.95;;;;;;;2.95;100.00;98422.78;2608384;28;20053;-93
2022/11/25 04:31:40;;;;;;;28.73;5.50;;;;;;;3.06;100.00;98427.09;2608418;28;20106;-94
2022/11/25 04:32:56;;;;;;;18.77;5.05;;;;;;;3.07;100.00;98419.34;2608322;28;20068;-94
2022/11/25 04:34:11;;;;;;;19.85;4.82;;;;;;;2.85;100.00;98426.22;2608366;28;20056;-93
2022/11/25 04:35:27;;;;;;;18.33;4.47;;;;;;;2.66;100.00;98425.28;2608285;28;20438;-93
2022/11/25 04:36:42;;;;;;;21.60;4.78;;;;;;;2.66;100.00;98426.16;2608235;28;20111;-93
2022/11/25 04:37:58;;;;;;;14.80;4.53;;;;;;;2.56;100.00;98421.81;2608544;28;20538;-94
2022/11/25 04:39:14;;;;;;;10.25;4.63;;;;;;;2.72;100.00;98417.53;2608102;28;20080;-94
2022/11/25 04:40:29;;;;;;;14.60;4.55;;;;;;;2.85;100.00;98425.31;2608151;28;20393;-94
2022/11/25 04:41:45;;;;;;;11.32;4.60;;;;;;;2.92;100.00;98420.19;2608212;28;20045;-92
2022/11/25 04:43:00;;;;;;;14.10;4.47;;;;;;;2.76;100.00;98418.41;2608373;28;20427;-93
2022/11/25 04:44:16;;;;;;;12.90;4.18;;;;;;;2.79;100.00;98421.88;2607830;28;20049;-94
2022/11/25 04:45:32;;;;;;;8.57;3.90;;;;;;;2.87;100.00;98421.06;2606358;28;20067;-93
2022/11/25 04:46:47;;;;;;;5.88;3.80;;;;;;;2.96;100.00;98421.94;2606966;28;20450;-92
2022/11/25 04:48:03;;;;;;;7.70;4.13;;;;;;;2.90;100.00;98427.06;2607699;28;20080;-93
2022/11/25 04:49:19;;;;;;;7.13;3.42;;;;;;;2.77;100.00;98420.13;2608064;28;20156;-93
2022/11/25 04:50:34;;;;;;;7.03;3.63;;;;;;;2.64;100.00;98422.69;2608135;28;20067;-94
2022/11/25 04:51:50;;;;;;;8.43;3.40;;;;;;;2.71;100.00;98420.13;2608091;28;20254;-93
2022/11/25 04:53:05;;;;;;;7.07;3.38;;;;;;;2.52;100.00;98417.50;2608099;28;20495;-93
2022/11/25 04:54:21;;;;;;;10.02;4.07;;;;;;;2.71;100.00;98418.38;2607673;28;20053;-92
2022/11/25 04:55:37;;;;;;;8.23;3.67;;;;;;;2.80;100.00;98421.00;2607867;28;20053;-93
2022/11/25 04:56:52;;;;;;;7.15;3.17;;;;;;;2.87;100.00;98426.22;2608081;28;20064;-93
2022/11/25 04:58:10;;;;;;;6.97;3.33;;;;;;;2.91;100.00;98423.63;2608037;28;20057;-93
2022/11/25 04:59:38;;;;;;;7.78;3.40;;;;;;;2.86;100.00;98425.34;2607812;28;20057;-93
2022/11/25 05:00:53;;;;;;;9.13;3.75;;;;;;;2.83;100.00;98421.03;2607381;28;20087;-94
2022/11/25 05:02:19;;;;;;;8.85;2.95;;;;;;;2.87;100.00;98429.66;2607938;28;20056;-92
2022/11/25 05:03:34;;;;;;;6.80;2.70;;;;;;;2.85;100.00;98428.78;2607760;28;20183;-91
2022/11/25 05:04:53;;;;;;;15.15;4.38;;;;;;;2.83;100.00;98426.19;2607759;28;20118;-90
2022/11/25 05:06:09;;;;;;;19.60;5.22;;;;;;;2.87;100.00;98429.66;2607511;28;20061;-92
2022/11/25 05:07:26;;;;;;;15.93;5.72;;;;;;;2.88;100.00;98427.94;2607831;28;20491;-92
2022/11/25 05:08:42;;;;;;;12.85;4.80;;;;;;;2.90;100.00;98429.66;2607783;28;20052;-92
2022/11/25 05:09:58;;;;;;;8.40;4.70;;;;;;;2.90;100.00;98427.06;2606299;28;20076;-92
2022/11/25 05:11:13;;;;;;;11.40;4.60;;;;;;;2.95;100.00;98424.50;2607529;28;20522;-93
2022/11/25 05:12:29;;;;;;;12.80;4.97;;;;;;;3.00;100.00;98427.94;2607521;28;20411;-93
2022/11/25 05:13:45;;;;;;;12.35;6.00;;;;;;;3.03;100.00;98427.09;2607378;28;20139;-93
2022/11/25 05:15:01;;;;;;;7.32;3.85;;;;;;;2.78;100.00;98427.03;2607305;28;20053;-92
2022/11/25 05:16:16;;;;;;;9.82;4.68;;;;;;;2.64;100.00;98434.75;2607496;28;20049;-93
2022/11/25 05:17:32;;;;;;;11.25;4.53;;;;;;;2.86;100.00;98432.22;2607426;28;20053;-93
2022/11/25 05:18:47;;;;;;;8.30;4.13;;;;;;;2.88;100.00;98428.78;2607807;28;20055;-91
2022/11/25 05:20:04;;;;;;;11.10;3.83;;;;;;;2.70;100.00;98429.59;2606798;28;20496;-91
2022/11/25 05:21:19;;;;;;;8.02;3.80;;;;;;;2.74;100.00;98430.47;2606167;28;20126;-91
2022/11/25 05:22:35;;;;;;;11.05;3.83;;;;;;;2.84;100.00;98429.66;2606651;28;20110;-91
2022/11/25 05:23:52;;;;;;;10.77;3.55;;;;;;;2.94;100.00;98433.13;2606649;28;20091;-90
2022/11/25 05:25:09;;;;;;;15.38;3.78;;;;;;;2.91;100.00;98430.53;2606565;28;20053;-91
2022/11/25 05:26:25;;;;;;;26.33;4.07;;;;;;;2.84;100.00;98432.25;2606760;28;20055;-92
2022/11/25 05:27:40;;;;;;;23.13;4.47;;;;;;;2.95;100.00;98440.03;2606582;28;20507;-91
2022/11/25 05:28:56;;;;;;;17.95;4.30;;;;;;;2.92;100.00;98437.44;2606531;28;20506;-91
2022/11/25 05:30:12;;;;;;;21.23;3.97;;;;;;;2.96;100.00;98440.03;2606470;28;20052;-91
2022/11/25 05:31:27;;;;;;;13.00;3.58;;;;;;;2.87;100.00;98441.75;2606586;28;20045;-91
2022/11/25 05:32:43;;;;;;;17.23;4.00;;;;;;;2.99;100.00;98446.91;2606582;28;20048;-93
2022/11/25 05:34:00;;;;;;;16.45;4.13;;;;;;;3.05;100.00;98446.06;2606559;28;20045;-92
2022/11/25 05:35:16;;;;;;;21.73;7.03;;;;;;;3.14;100.00;98448.69;2606274;28;20102;-90
2022/11/25 05:36:32;;;;;;;7.53;3.63;;;;;;;3.09;100.00;98443.50;2606873;28;20565;-91
2022/11/25 05:37:47;;;;;;;12.32;4.20;;;;;;;3.06;100.00;98446.09;2606673;28;20408;-91
2022/11/25 05:39:03;;;;;;;24.88;7.35;;;;;;;3.14;100.00;98445.22;2606698;28;20081;-91
2022/11/25 05:40:19;;;;;;;24.83;8.30;;;;;;;2.89;100.00;98445.19;2606468;28;20135;-92
2022/11/25 05:41:35;;;;;;;38.17;9.70;;;;;;;2.94;100.00;98446.94;2606657;28;20053;-91
2022/11/25 05:42:50;;;;;;;14.30;5.88;;;;;;;2.92;100.00;98448.63;2606594;28;20057;-90
2022/11/25 05:44:06;;;;;;;12.77;4.43;;;;;;;3.10;100.00;98455.56;2606732;28;20090;-92
2022/11/25 05:45:21;;;;;;;25.08;5.60;;;;;;;3.01;100.00;98455.56;2606538;28;20553;-92
2022/11/25 05:46:37;;;;;;;20.67;5.55;;;;;;;3.16;100.00;98457.31;2606827;28;20060;-90
2022/11/25 05:47:54;;;;;;;24.27;7.20;;;;;;;3.15;100.00;98455.59;2606670;28;20400;-91
2022/11/25 05:49:09;;;;;;;26.92;7.38;;;;;;;3.19;100.00;98453.88;2606203;28;20044;-91
2022/11/25 05:50:25;;;;;;;24.00;6.75;;;;;;;3.17;100.00;98446.09;2606749;28;20053;-90
2022/11/25 05:51:40;;;;;;;28.33;5.78;;;;;;;3.18;100.00;98454.75;2606601;28;20057;-91
2022/11/25 05:52:56;;;;;;;15.75;5.00;;;;;;;3.20;100.00;98453.03;2606652;28;20045;-91
2022/11/25 05:54:12;;;;;;;9.93;5.05;;;;;;;3.04;100.00;98457.28;2606648;28;20048;-92
2022/11/25 05:55:27;;;;;;;10.93;4.15;;;;;;;3.09;100.00;98455.59;2606653;28;20143;-90
2022/11/25 05:56:43;;;;;;;13.25;5.00;;;;;;;2.72;100.00;98460.63;2605956;28;20052;-92
2022/11/25 05:57:58;;;;;;;7.43;4.00;;;;;;;2.48;100.00;98459.66;2606343;28;20492;-90
2022/11/25 05:59:14;;;;;;;10.88;3.92;;;;;;;2.40;100.00;98457.03;2606167;28;20083;-91
2022/11/25 06:00:30;;;;;;;11.63;3.72;;;;;;;2.31;100.00;98465.59;2606577;28;20393;-91
2022/11/25 06:01:46;;;;;;;10.88;4.05;;;;;;;2.12;100.00;98464.63;2606361;28;20049;-91
2022/11/25 06:03:01;;;;;;;10.77;4.47;;;;;;;2.15;100.00;98462.06;2606678;28;20048;-90
2022/11/25 06:04:17;;;;;;;10.63;4.32;;;;;;;2.13;100.00;98468.09;2606592;28;20045;-92